Flight Track Log - Related Links

Times and Time Zones

All times are in EDT time to prevent confusion due to time zone crossing. See the JTL868 flight status page for this flight to view local times or setup timezone preferences in your user account.

Time Position Orientation Groundspeed Altitude Reporting Facility
EDT Latitude Longitude Course Direction KTS MPH feet Rate Location/Type
Thu 05:07:10 PM 40.7500 -73.1333 108° East 219 252 2,800  Level New York TRACON
Thu 05:08:10 PM 40.7333 -73.0667 108° East 271 312 3,100 100 Climbing New York TRACON
Thu 05:09:10 PM 40.7500 -72.9667 78° East 274 315 3,000 -50 Descending New York TRACON
Thu 05:10:10 PM 40.7667 -72.8667 78° East 274 315 3,000  Level New York TRACON
Thu 05:11:10 PM 40.7833 -72.7667 78° East 275 316 3,000  Level New York TRACON
Thu 05:12:04 PM 40.7833 -72.6667 90° East 278 320 3,000  Level New York TRACON
Thu 05:13:10 PM 40.8167 -72.5667 66° East 277 319 3,000  Level New York TRACON
Thu 05:14:10 PM 40.8333 -72.4667 78° East 280 322 3,000  Level New York TRACON
Thu 05:15:10 PM 40.8667 -72.4000 57° Northeast 236 272 3,000  Level New York TRACON
Thu 05:16:10 PM 40.9167 -72.4000 360° North 207 238 3,000  Level New York TRACON
Thu 05:17:10 PM 40.9667 -72.4167 346° North 204 235 3,000  Level New York TRACON
Thu 05:18:10 PM 40.9667 -72.4833 270° West 167 192 3,000  Level New York TRACON
Thu 05:19:04 PM 40.9333 -72.5333 229° Southwest 153 176 3,000 -316 Level New York TRACON
Thu 05:20:04 PM 40.9667 -72.5667 323° Northwest 174 200 2,400 -500 Descending New York TRACON
Thu 05:21:04 PM 41.0000 -72.5500 21° North 188 216 2,000 -190 Descending New York TRACON
Thu 05:22:10 PM 40.9667 -72.5167 143° Southeast 191 220 2,000  Level New York TRACON
Thu 05:23:10 PM 40.9167 -72.5333 194° South 178 205 2,000 -350 Level New York TRACON
Thu 05:24:10 PM 40.9000 -72.5667 237° Southwest 119 137 1,300 -700 Descending New York TRACON
Thu 05:25:10 PM 40.8667 -72.6000 217° Southwest 120 138 600 -700 Descending New York TRACON
Thu 05:27:00 PM 40.8333 -72.6167 246° West  Level FlightAware Approximate
Thu 05:34:00 PM 40.8437 -72.6318 246° West  Level Estimated
Thu 05:35:00 PM 40.8437 -72.6318 246° West  Level Estimated
Thu 05:36:00 PM 40.8437 -72.6318 246° West  Level Estimated

Login

Don't have an account? Register now (free) for customized features, flight alerts, and more!